Terminal Aerodrome Forecast
Issued by NWS

Home | Current Version | Previous Version | Graphics & Text | Print | Product List | Glossary On
Versions: 1 2 3 4 5 6 7 8 9 10 11 12 13 14 15
000
FTUS43 KICT 232339
TAFSLN
TAF
KSLN 232339Z 2400/2424 17013KT P6SM SCT250
     FM240800 17012KT P6SM FEW250 WS020/19045KT
     FM241500 18027G37KT P6SM FEW250=

USA.gov is the U.S. government's official web portal to all federal, state and local government web resources and services.